Time;durP1;ratioP1;P1;durP2;ratioP2;P2;SDS_P1;SDS_P2;PMS_P1;PMS_P2;Temp;Humidity;BMP_temperature;BMP_pressure;BME280_temperature;BME280_humidity;BME280_pressure;Samples;Min_cycle;Max_cycle;Signal;HPM_P1;HPM_P2
2022/12/07 00:00:16;;;;;;;93.03;74.93;;;;;;;;;;5035314;28;20014;-78
2022/12/07 00:02:42;;;;;;;71.85;57.10;;;;;;;;;;5032442;28;20029;-79
2022/12/07 00:05:07;;;;;;;62.78;50.30;;;;;;;;;;5022401;28;20108;-78
2022/12/07 00:07:32;;;;;;;68.32;56.22;;;;;;;;;;5026101;28;20090;-78
2022/12/07 00:09:58;;;;;;;72.90;57.47;;;;;;;;;;5026266;28;20475;-78
2022/12/07 00:12:23;;;;;;;61.22;53.78;;;;;;;;;;5034556;28;20045;-78
2022/12/07 00:14:48;;;;;;;55.03;44.42;;;;;;;;;;5034379;28;20048;-78
2022/12/07 00:17:14;;;;;;;53.55;43.90;;;;;;;;;;5037100;28;20032;-79
2022/12/07 00:19:39;;;;;;;54.78;45.10;;;;;;;;;;5036245;28;20022;-78
2022/12/07 00:22:04;;;;;;;45.65;38.40;;;;;;;;;;5024041;28;20022;-80
2022/12/07 00:24:30;;;;;;;41.10;35.33;;;;;;;;;;5030203;28;20112;-79
2022/12/07 00:26:55;;;;;;;41.72;34.20;;;;;;;;;;5032058;28;20156;-79
2022/12/07 00:29:21;;;;;;;56.22;43.17;;;;;;;;;;5039913;28;20040;-81
2022/12/07 00:31:47;;;;;;;57.03;41.17;;;;;;;;;;5040059;28;20399;-78
2022/12/07 00:34:13;;;;;;;52.70;40.85;;;;;;;;;;5040332;28;20021;-80
2022/12/07 00:36:39;;;;;;;71.68;57.30;;;;;;;;;;5039460;28;20125;-78
2022/12/07 00:39:04;;;;;;;83.70;62.70;;;;;;;;;;5032388;28;20043;-80
2022/12/07 00:41:30;;;;;;;82.75;61.88;;;;;;;;;;5028740;28;20187;-82
2022/12/07 00:43:55;;;;;;;60.58;46.95;;;;;;;;;;5038326;28;20040;-84
2022/12/07 00:46:21;;;;;;;56.03;46.30;;;;;;;;;;5029250;28;20017;-79
2022/12/07 00:48:47;;;;;;;43.83;37.30;;;;;;;;;;5034052;28;20513;-79
2022/12/07 00:51:13;;;;;;;63.50;52.17;;;;;;;;;;5036946;28;20033;-79
2022/12/07 00:53:38;;;;;;;62.75;51.45;;;;;;;;;;5036987;28;20029;-79
2022/12/07 00:56:05;;;;;;;48.67;40.30;;;;;;;;;;5040021;28;20459;-80
2022/12/07 00:58:30;;;;;;;68.30;55.22;;;;;;;;;;5038102;28;20029;-79
2022/12/07 01:00:59;;;;;;;58.80;49.10;;;;;;;;;;5033749;28;20968;-80
2022/12/07 01:03:24;;;;;;;79.82;69.03;;;;;;;;;;5033543;28;20029;-81
2022/12/07 01:05:51;;;;;;;73.97;65.75;;;;;;;;;;5032865;28;20044;-81
2022/12/07 01:08:16;;;;;;;54.50;46.92;;;;;;;;;;5035042;28;20036;-81
2022/12/07 01:10:42;;;;;;;91.55;81.57;;;;;;;;;;5037233;28;20049;-81
2022/12/07 01:13:07;;;;;;;94.68;79.75;;;;;;;;;;5035335;28;20060;-81
2022/12/07 01:15:32;;;;;;;86.72;70.53;;;;;;;;;;5037240;28;20032;-80
2022/12/07 01:17:58;;;;;;;84.90;68.80;;;;;;;;;;5033834;28;20062;-84
2022/12/07 01:20:23;;;;;;;94.72;80.07;;;;;;;;;;5031635;28;20037;-81
2022/12/07 01:22:48;;;;;;;85.28;68.40;;;;;;;;;;5037326;28;20428;-79
2022/12/07 01:25:14;;;;;;;83.75;66.35;;;;;;;;;;5036091;28;20110;-78
2022/12/07 01:27:39;;;;;;;87.55;69.60;;;;;;;;;;5037694;28;20029;-81
2022/12/07 01:30:06;;;;;;;82.63;64.18;;;;;;;;;;5038519;28;20017;-79
2022/12/07 01:32:31;;;;;;;74.65;58.38;;;;;;;;;;5036406;28;20028;-78
2022/12/07 01:34:57;;;;;;;73.03;59.20;;;;;;;;;;5036171;28;20092;-77
2022/12/07 01:37:22;;;;;;;109.95;85.63;;;;;;;;;;5035251;28;20144;-77
2022/12/07 01:39:51;;;;;;;110.75;87.32;;;;;;;;;;5032397;28;20059;-81
2022/12/07 01:42:16;;;;;;;86.47;67.90;;;;;;;;;;5030322;28;20082;-77
2022/12/07 01:45:01;;;;;;;117.05;86.60;;;;;;;;;;5037155;28;20020;-78
2022/12/07 01:47:27;;;;;;;80.18;60.00;;;;;;;;;;5031068;28;20067;-78
2022/12/07 01:49:52;;;;;;;70.65;54.40;;;;;;;;;;5026963;28;20017;-78
2022/12/07 01:52:30;;;;;;;66.13;50.67;;;;;;;;;;5026497;28;20043;-80
2022/12/07 01:55:00;;;;;;;71.10;55.80;;;;;;;;;;5037836;28;20044;-78
2022/12/07 01:57:26;;;;;;;73.40;59.15;;;;;;;;;;5030737;28;20416;-78
2022/12/07 01:59:52;;;;;;;69.65;55.05;;;;;;;;;;5023706;28;20116;-76
2022/12/07 02:02:19;;;;;;;69.30;54.67;;;;;;;;;;5035073;28;20021;-77
2022/12/07 02:04:45;;;;;;;87.38;70.72;;;;;;;;;;5036282;28;20769;-78
2022/12/07 02:07:11;;;;;;;80.80;65.03;;;;;;;;;;5031654;28;20060;-78
2022/12/07 02:09:38;;;;;;;94.26;73.50;;;;;;;;;;5025970;28;1266581;-77
2022/12/07 02:12:04;;;;;;;99.10;76.93;;;;;;;;;;5033762;28;20069;-77
2022/12/07 02:14:29;;;;;;;86.22;66.72;;;;;;;;;;5021771;28;20044;-77
2022/12/07 02:17:11;;;;;;;74.32;59.28;;;;;;;;;;5029223;28;20029;-79
2022/12/07 02:20:00;;;;;;;69.60;55.45;;;;;;;;;;5031472;28;20032;-76
2022/12/07 02:22:38;;;;;;;74.75;57.40;;;;;;;;;;5036524;28;20074;-78
2022/12/07 02:25:15;;;;;;;78.15;61.58;;;;;;;;;;5038593;28;20369;-76
2022/12/07 02:27:43;;;;;;;70.63;57.72;;;;;;;;;;5036239;28;20032;-78
2022/12/07 02:30:09;;;;;;;74.35;60.30;;;;;;;;;;5020084;28;20095;-77
2022/12/07 02:32:41;;;;;;;71.72;56.42;;;;;;;;;;5036414;28;20436;-79
2022/12/07 02:35:09;;;;;;;65.45;52.17;;;;;;;;;;5027401;28;20030;-80
2022/12/07 02:37:37;;;;;;;78.45;63.72;;;;;;;;;;5033041;28;20017;-78
2022/12/07 02:40:12;;;;;;;74.72;59.70;;;;;;;;;;5032748;28;20090;-79
2022/12/07 02:42:40;;;;;;;74.80;61.72;;;;;;;;;;5035371;28;20025;-77
2022/12/07 02:45:06;;;;;;;70.55;56.25;;;;;;;;;;5027978;28;20047;-79
2022/12/07 02:47:33;;;;;;;61.65;50.83;;;;;;;;;;5038529;28;20120;-79
2022/12/07 02:49:58;;;;;;;62.58;50.20;;;;;;;;;;5033456;28;20569;-79
2022/12/07 02:52:23;;;;;;;63.05;50.35;;;;;;;;;;5027087;28;20056;-78
2022/12/07 02:54:49;;;;;;;62.08;49.78;;;;;;;;;;5037353;28;20025;-79
2022/12/07 02:57:17;;;;;;;67.35;51.17;;;;;;;;;;5035894;28;20021;-79
2022/12/07 02:59:43;;;;;;;68.75;53.17;;;;;;;;;;5019264;28;20420;-78
2022/12/07 03:02:18;;;;;;;71.03;55.75;;;;;;;;;;5037987;28;20069;-79
2022/12/07 03:05:01;;;;;;;69.13;53.70;;;;;;;;;;5035302;28;20087;-78
2022/12/07 03:07:39;;;;;;;60.65;49.00;;;;;;;;;;5031804;28;20030;-78
2022/12/07 03:10:14;;;;;;;48.50;39.53;;;;;;;;;;5027835;28;20349;-78
2022/12/07 03:12:39;;;;;;;37.25;32.20;;;;;;;;;;5035242;28;20053;-79
2022/12/07 03:15:07;;;;;;;46.97;36.15;;;;;;;;;;5036314;28;20021;-78
2022/12/07 03:17:34;;;;;;;35.05;30.02;;;;;;;;;;5036460;28;20090;-80
2022/12/07 03:20:01;;;;;;;35.92;30.08;;;;;;;;;;5035332;28;20087;-78
2022/12/07 03:22:30;;;;;;;31.10;27.17;;;;;;;;;;5035824;28;20029;-79
2022/12/07 03:24:58;;;;;;;33.47;26.77;;;;;;;;;;5019316;28;20025;-79
2022/12/07 03:27:25;;;;;;;33.50;28.25;;;;;;;;;;5038555;28;20055;-78
2022/12/07 03:30:14;;;;;;;41.08;34.20;;;;;;;;;;5037739;28;20436;-78
2022/12/07 03:32:43;;;;;;;40.65;35.05;;;;;;;;;;5015439;28;20052;-80
2022/12/07 03:35:11;;;;;;;51.03;44.07;;;;;;;;;;5036741;28;20139;-80
2022/12/07 03:37:57;;;;;;;42.88;35.72;;;;;;;;;;5035023;28;20082;-78
2022/12/07 03:40:22;;;;;;;37.83;32.67;;;;;;;;;;5025875;28;20163;-80
2022/12/07 03:42:48;;;;;;;33.95;28.77;;;;;;;;;;5036398;28;20135;-79
2022/12/07 03:45:14;;;;;;;32.08;28.30;;;;;;;;;;5036827;28;20060;-80
2022/12/07 03:47:45;;;;;;;32.47;27.23;;;;;;;;;;5035326;28;20064;-79
2022/12/07 03:50:17;;;;;;;31.58;28.15;;;;;;;;;;5028930;28;20033;-80
2022/12/07 03:52:45;;;;;;;37.42;33.22;;;;;;;;;;5034720;28;20033;-78
2022/12/07 03:55:26;;;;;;;44.53;38.55;;;;;;;;;;5037029;28;20040;-80
2022/12/07 03:57:53;;;;;;;52.25;43.78;;;;;;;;;;5038335;28;20083;-80
2022/12/07 04:00:18;;;;;;;45.85;39.60;;;;;;;;;;5036132;28;20144;-80
2022/12/07 04:02:44;;;;;;;49.78;42.10;;;;;;;;;;5036981;28;20119;-79
2022/12/07 04:05:10;;;;;;;48.28;42.63;;;;;;;;;;5028010;28;20055;-79
2022/12/07 04:07:35;;;;;;;45.17;38.75;;;;;;;;;;5029492;28;20060;-78
2022/12/07 04:10:00;;;;;;;47.17;39.63;;;;;;;;;;5026060;28;20400;-78
2022/12/07 04:12:26;;;;;;;42.92;38.13;;;;;;;;;;5036953;28;20040;-79
2022/12/07 04:14:51;;;;;;;41.90;35.17;;;;;;;;;;5036144;28;20039;-81
2022/12/07 04:17:16;;;;;;;40.53;35.60;;;;;;;;;;5037233;28;20440;-79
2022/12/07 04:19:42;;;;;;;44.20;37.65;;;;;;;;;;5033905;28;20440;-77
2022/12/07 04:22:07;;;;;;;49.78;42.63;;;;;;;;;;5022353;28;20352;-81
2022/12/07 04:24:33;;;;;;;56.22;47.70;;;;;;;;;;5019965;28;20036;-78
2022/12/07 04:26:58;;;;;;;50.55;41.90;;;;;;;;;;5020781;28;20021;-78
2022/12/07 04:29:24;;;;;;;36.67;32.63;;;;;;;;;;5021175;28;20036;-76
2022/12/07 04:31:50;;;;;;;36.10;31.58;;;;;;;;;;5027434;28;20111;-77
2022/12/07 04:34:16;;;;;;;47.17;42.08;;;;;;;;;;5035444;28;20029;-79
2022/12/07 04:36:41;;;;;;;24.85;22.10;;;;;;;;;;5036159;28;20044;-79
2022/12/07 04:39:08;;;;;;;22.75;19.85;;;;;;;;;;5036546;28;20436;-77
2022/12/07 04:41:33;;;;;;;26.50;20.73;;;;;;;;;;5037675;28;20037;-78
2022/12/07 04:44:00;;;;;;;27.70;21.75;;;;;;;;;;5038409;28;20028;-78
2022/12/07 04:46:27;;;;;;;24.88;20.45;;;;;;;;;;5037490;28;20021;-80
2022/12/07 04:48:53;;;;;;;22.17;17.67;;;;;;;;;;5037898;28;20106;-82
2022/12/07 04:51:19;;;;;;;26.20;21.70;;;;;;;;;;5021728;28;20028;-78
2022/12/07 04:53:45;;;;;;;33.22;23.00;;;;;;;;;;5023706;28;21407;-78
2022/12/07 04:56:10;;;;;;;42.55;29.77;;;;;;;;;;5024578;28;20052;-80
2022/12/07 04:58:35;;;;;;;40.38;30.73;;;;;;;;;;5019629;28;20364;-79
2022/12/07 05:01:01;;;;;;;46.00;31.88;;;;;;;;;;5020467;28;20027;-80
2022/12/07 05:03:26;;;;;;;36.55;27.13;;;;;;;;;;5030404;28;20886;-80
2022/12/07 05:05:51;;;;;;;41.95;29.75;;;;;;;;;;5034848;28;20035;-78
2022/12/07 05:08:17;;;;;;;42.33;29.52;;;;;;;;;;5037136;28;20071;-77
2022/12/07 05:10:42;;;;;;;78.30;62.13;;;;;;;;;;5026285;28;20067;-77
2022/12/07 05:13:07;;;;;;;78.90;65.75;;;;;;;;;;5030529;28;20029;-76
2022/12/07 05:15:33;;;;;;;140.77;111.70;;;;;;;;;;5037791;28;20028;-78
2022/12/07 05:17:58;;;;;;;155.27;115.38;;;;;;;;;;5042931;28;20187;-78
2022/12/07 05:20:24;;;;;;;140.80;117.22;;;;;;;;;;5038609;28;20401;-80
2022/12/07 05:22:49;;;;;;;104.55;88.25;;;;;;;;;;5036534;28;20037;-80
2022/12/07 05:25:14;;;;;;;55.42;45.08;;;;;;;;;;5041405;28;20021;-79
2022/12/07 05:27:40;;;;;;;46.33;37.42;;;;;;;;;;5038894;28;20112;-77
2022/12/07 05:30:05;;;;;;;59.90;45.90;;;;;;;;;;5033332;28;20044;-77
2022/12/07 05:32:31;;;;;;;80.18;65.38;;;;;;;;;;5035724;28;20043;-79
2022/12/07 05:34:56;;;;;;;85.90;65.75;;;;;;;;;;5038279;28;20441;-77
2022/12/07 05:37:21;;;;;;;98.97;76.50;;;;;;;;;;5040230;28;20086;-78
2022/12/07 05:39:47;;;;;;;67.25;51.95;;;;;;;;;;5030871;28;20097;-76
2022/12/07 05:42:12;;;;;;;54.67;42.08;;;;;;;;;;5027886;28;20375;-75
2022/12/07 05:44:41;;;;;;;95.78;79.88;;;;;;;;;;5030271;28;20045;-74
2022/12/07 05:47:07;;;;;;;76.05;64.72;;;;;;;;;;5023779;28;21191;-74
2022/12/07 05:49:32;;;;;;;52.45;42.72;;;;;;;;;;5038075;28;20033;-76
2022/12/07 05:51:58;;;;;;;34.53;29.58;;;;;;;;;;5032470;28;20037;-78
2022/12/07 05:54:23;;;;;;;34.28;29.00;;;;;;;;;;5034212;28;20021;-78
2022/12/07 05:56:48;;;;;;;23.58;20.20;;;;;;;;;;5036796;28;20052;-76
2022/12/07 05:59:23;;;;;;;22.55;19.98;;;;;;;;;;5032059;28;20017;-77
2022/12/07 06:01:59;;;;;;;46.55;38.15;;;;;;;;;;5023523;28;20468;-77
2022/12/07 06:04:26;;;;;;;55.60;43.28;;;;;;;;;;5025179;28;20043;-77
2022/12/07 06:06:52;;;;;;;74.93;67.10;;;;;;;;;;5027077;28;20452;-79
2022/12/07 06:09:21;;;;;;;66.50;57.95;;;;;;;;;;5026211;28;20026;-79
2022/12/07 06:14:30;;;;;;;69.75;61.75;;;;;;;;;;5031842;28;20024;-77
2022/12/07 06:16:56;;;;;;;56.88;44.97;;;;;;;;;;5040337;28;20029;-76
2022/12/07 06:19:21;;;;;;;51.70;41.78;;;;;;;;;;5040099;28;20708;-77
2022/12/07 06:21:47;;;;;;;66.55;48.28;;;;;;;;;;5037329;28;20440;-77
2022/12/07 06:24:13;;;;;;;94.70;68.50;;;;;;;;;;5038565;28;20068;-77
2022/12/07 06:26:39;;;;;;;67.05;47.58;;;;;;;;;;5037066;28;20109;-77
2022/12/07 06:29:04;;;;;;;56.58;44.33;;;;;;;;;;5038040;28;20371;-77
2022/12/07 06:31:29;;;;;;;97.53;78.13;;;;;;;;;;5030033;28;20021;-77
2022/12/07 06:34:01;;;;;;;68.40;54.03;;;;;;;;;;5033812;28;20025;-78
2022/12/07 06:36:26;;;;;;;52.50;43.38;;;;;;;;;;5037976;28;20083;-78
2022/12/07 06:38:52;;;;;;;57.15;46.08;;;;;;;;;;5039952;28;20428;-77
2022/12/07 06:41:17;;;;;;;68.78;54.80;;;;;;;;;;5038316;28;20566;-79
2022/12/07 06:43:43;;;;;;;47.47;39.10;;;;;;;;;;5035593;28;20548;-80
2022/12/07 06:46:08;;;;;;;51.67;45.33;;;;;;;;;;5014834;28;20021;-80
2022/12/07 06:48:33;;;;;;;48.63;41.47;;;;;;;;;;5025518;28;20409;-78
2022/12/07 06:50:59;;;;;;;48.08;38.63;;;;;;;;;;5027494;28;20029;-79
2022/12/07 06:53:24;;;;;;;56.00;46.95;;;;;;;;;;5025633;28;20081;-78
2022/12/07 06:55:50;;;;;;;56.85;46.40;;;;;;;;;;5013088;28;20054;-79
2022/12/07 06:58:15;;;;;;;50.58;41.15;;;;;;;;;;5016690;28;20712;-79
2022/12/07 07:00:41;;;;;;;33.40;29.05;;;;;;;;;;5036367;28;20363;-80
2022/12/07 07:03:06;;;;;;;27.95;23.80;;;;;;;;;;5035569;28;20029;-81
2022/12/07 07:05:31;;;;;;;55.55;44.90;;;;;;;;;;5025000;28;20040;-79
2022/12/07 07:07:57;;;;;;;47.72;39.20;;;;;;;;;;5022426;28;20139;-79
2022/12/07 07:10:22;;;;;;;48.13;40.80;;;;;;;;;;5024882;28;20076;-81
2022/12/07 07:12:47;;;;;;;38.58;30.98;;;;;;;;;;5018951;28;20522;-79
2022/12/07 07:15:13;;;;;;;48.00;40.97;;;;;;;;;;5032842;28;20407;-79
2022/12/07 07:17:38;;;;;;;60.58;51.60;;;;;;;;;;5033538;28;20052;-78
2022/12/07 07:20:04;;;;;;;66.30;58.92;;;;;;;;;;5034137;28;20025;-77
2022/12/07 07:22:29;;;;;;;74.15;64.85;;;;;;;;;;5038372;28;20026;-80
2022/12/07 07:24:55;;;;;;;65.47;51.63;;;;;;;;;;5035950;28;20036;-78
2022/12/07 07:27:20;;;;;;;62.55;50.42;;;;;;;;;;5039506;28;20419;-79
2022/12/07 07:29:45;;;;;;;79.60;68.55;;;;;;;;;;5035806;28;20032;-79
2022/12/07 07:32:12;;;;;;;64.15;52.22;;;;;;;;;;5036126;28;20032;-79
2022/12/07 07:34:37;;;;;;;208.52;120.72;;;;;;;;;;5036914;28;20037;-78
2022/12/07 07:37:02;;;;;;;145.25;88.28;;;;;;;;;;5037672;28;20099;-78
2022/12/07 07:39:28;;;;;;;156.75;103.47;;;;;;;;;;5036476;28;20104;-76
2022/12/07 07:41:53;;;;;;;192.73;120.28;;;;;;;;;;5034648;28;20033;-79
2022/12/07 07:44:18;;;;;;;224.05;144.38;;;;;;;;;;5032103;28;20119;-79
2022/12/07 07:46:44;;;;;;;182.10;126.38;;;;;;;;;;5035528;28;20068;-79
2022/12/07 07:49:10;;;;;;;140.25;99.32;;;;;;;;;;5038785;28;20075;-79
2022/12/07 07:51:35;;;;;;;94.18;71.47;;;;;;;;;;5036845;28;20032;-79
2022/12/07 07:54:01;;;;;;;76.50;52.60;;;;;;;;;;5033081;28;20061;-78
2022/12/07 07:56:26;;;;;;;151.30;78.68;;;;;;;;;;5029548;28;20024;-79
2022/12/07 07:58:52;;;;;;;210.65;127.90;;;;;;;;;;5022593;28;20026;-79
2022/12/07 08:01:19;;;;;;;199.27;122.47;;;;;;;;;;5020555;28;20026;-79
2022/12/07 08:03:44;;;;;;;459.13;273.42;;;;;;;;;;5022556;28;20033;-79
2022/12/07 08:06:10;;;;;;;331.75;188.48;;;;;;;;;;5036540;28;20044;-79
2022/12/07 08:08:35;;;;;;;135.02;97.75;;;;;;;;;;5023416;28;20029;-78
2022/12/07 08:11:01;;;;;;;305.73;234.10;;;;;;;;;;5021909;28;20053;-79
2022/12/07 08:13:26;;;;;;;205.98;135.38;;;;;;;;;;5024177;28;20025;-79
2022/12/07 08:15:52;;;;;;;138.85;97.00;;;;;;;;;;5023171;28;20045;-79
2022/12/07 08:18:17;;;;;;;153.75;93.47;;;;;;;;;;5024501;28;20429;-78
2022/12/07 08:20:43;;;;;;;157.48;87.93;;;;;;;;;;5023234;28;20041;-78
2022/12/07 08:23:08;;;;;;;114.20;73.57;;;;;;;;;;5023896;28;20025;-78
2022/12/07 08:25:35;;;;;;;90.10;57.67;;;;;;;;;;5023672;28;20029;-78
2022/12/07 08:28:01;;;;;;;516.65;263.65;;;;;;;;;;5024366;28;20036;-78
2022/12/07 08:30:27;;;;;;;169.63;100.45;;;;;;;;;;5022683;28;20018;-78
2022/12/07 08:32:52;;;;;;;86.97;58.92;;;;;;;;;;5023319;28;20032;-78
2022/12/07 08:35:18;;;;;;;63.15;46.47;;;;;;;;;;5024495;28;20029;-78
2022/12/07 08:37:43;;;;;;;106.80;74.88;;;;;;;;;;5023506;28;20040;-78
2022/12/07 08:40:09;;;;;;;73.13;55.17;;;;;;;;;;5023657;28;20032;-78
2022/12/07 08:42:39;;;;;;;186.75;122.70;;;;;;;;;;5024210;28;20029;-78
2022/12/07 08:45:12;;;;;;;145.50;94.32;;;;;;;;;;5022627;28;20044;-78
2022/12/07 08:47:40;;;;;;;191.90;115.75;;;;;;;;;;5022469;28;20021;-78
2022/12/07 08:50:06;;;;;;;96.07;66.63;;;;;;;;;;5026347;28;20024;-77
2022/12/07 08:52:32;;;;;;;163.27;111.38;;;;;;;;;;5024112;28;20068;-79
2022/12/07 08:54:58;;;;;;;194.82;111.88;;;;;;;;;;5026410;28;20333;-78
2022/12/07 08:57:24;;;;;;;146.90;93.57;;;;;;;;;;5026877;28;20450;-78
2022/12/07 08:59:49;;;;;;;154.27;106.13;;;;;;;;;;5027322;28;20020;-77
2022/12/07 09:02:14;;;;;;;78.07;59.17;;;;;;;;;;5026831;28;20160;-78
2022/12/07 09:04:40;;;;;;;71.60;58.10;;;;;;;;;;5027127;28;20442;-78
2022/12/07 09:07:05;;;;;;;135.65;93.43;;;;;;;;;;5025331;28;20475;-78
2022/12/07 09:09:31;;;;;;;124.25;92.72;;;;;;;;;;5018760;28;20451;-80
2022/12/07 09:11:56;;;;;;;110.60;80.18;;;;;;;;;;5011873;28;20046;-78
2022/12/07 09:14:22;;;;;;;63.28;49.50;;;;;;;;;;5017550;28;20033;-79
2022/12/07 09:16:47;;;;;;;40.55;34.80;;;;;;;;;;5014203;28;20053;-79
2022/12/07 09:19:13;;;;;;;91.68;77.88;;;;;;;;;;5015734;28;20025;-78
2022/12/07 09:21:38;;;;;;;79.43;68.55;;;;;;;;;;5022743;28;20422;-78
2022/12/07 09:24:03;;;;;;;84.10;70.82;;;;;;;;;;5026602;28;20494;-80
2022/12/07 09:26:29;;;;;;;116.65;98.30;;;;;;;;;;5020146;28;20394;-78
2022/12/07 09:28:54;;;;;;;91.88;75.60;;;;;;;;;;5028259;28;20064;-78
2022/12/07 09:31:19;;;;;;;63.33;51.58;;;;;;;;;;5024064;28;20037;-79
2022/12/07 09:33:45;;;;;;;99.15;71.63;;;;;;;;;;5015215;28;20545;-79
2022/12/07 09:36:10;;;;;;;96.97;75.35;;;;;;;;;;5035073;28;20025;-77
2022/12/07 09:38:35;;;;;;;41.78;37.17;;;;;;;;;;5038249;28;20519;-78
2022/12/07 09:41:05;;;;;;;77.85;64.35;;;;;;;;;;5035636;28;20397;-78
2022/12/07 09:43:30;;;;;;;43.58;37.05;;;;;;;;;;5036217;28;20036;-78
2022/12/07 09:45:56;;;;;;;55.33;43.70;;;;;;;;;;5038015;28;20360;-78
2022/12/07 09:48:25;;;;;;;49.75;38.47;;;;;;;;;;5037824;28;20016;-78
2022/12/07 09:50:52;;;;;;;34.03;29.67;;;;;;;;;;5037440;28;20056;-78
2022/12/07 09:53:28;;;;;;;31.90;26.88;;;;;;;;;;5036999;28;20018;-79
2022/12/07 09:55:53;;;;;;;173.60;117.80;;;;;;;;;;5027937;28;20115;-78
2022/12/07 09:58:24;;;;;;;89.00;65.25;;;;;;;;;;5025413;28;20037;-78
2022/12/07 10:00:52;;;;;;;150.75;97.53;;;;;;;;;;5020627;28;20024;-78
2022/12/07 10:03:18;;;;;;;70.97;53.90;;;;;;;;;;5022598;28;20021;-78
2022/12/07 10:05:45;;;;;;;31.05;27.75;;;;;;;;;;5020173;28;20039;-78
2022/12/07 10:08:11;;;;;;;27.48;24.58;;;;;;;;;;5036347;28;20351;-77
2022/12/07 10:10:38;;;;;;;26.70;23.83;;;;;;;;;;5031998;28;20404;-78
2022/12/07 10:13:09;;;;;;;62.35;51.53;;;;;;;;;;5034473;28;20021;-78
2022/12/07 10:15:49;;;;;;;35.42;31.67;;;;;;;;;;5033573;28;20086;-78
2022/12/07 10:18:24;;;;;;;50.17;45.17;;;;;;;;;;5036543;28;20028;-78
2022/12/07 10:20:59;;;;;;;37.38;33.53;;;;;;;;;;5025625;28;20045;-78
2022/12/07 10:23:25;;;;;;;32.20;28.73;;;;;;;;;;5022310;28;20037;-78
2022/12/07 10:25:54;;;;;;;56.60;42.10;;;;;;;;;;5022222;28;20110;-78
2022/12/07 10:28:22;;;;;;;37.67;32.22;;;;;;;;;;5023436;28;20025;-79
2022/12/07 10:30:50;;;;;;;60.50;49.97;;;;;;;;;;5024592;28;20045;-78
2022/12/07 10:33:33;;;;;;;428.15;259.83;;;;;;;;;;5021413;28;20028;-77
2022/12/07 10:35:59;;;;;;;72.90;54.35;;;;;;;;;;5017659;28;20135;-78
2022/12/07 10:38:26;;;;;;;66.97;52.65;;;;;;;;;;5024781;28;20017;-77
2022/12/07 10:41:02;;;;;;;41.40;33.58;;;;;;;;;;5024513;28;20079;-78
2022/12/07 10:43:28;;;;;;;36.38;32.30;;;;;;;;;;5022903;28;20087;-78
2022/12/07 10:45:56;;;;;;;61.67;55.00;;;;;;;;;;5023482;28;20025;-78
2022/12/07 10:48:27;;;;;;;38.88;34.70;;;;;;;;;;5024600;28;20024;-78
2022/12/07 10:51:13;;;;;;;43.45;38.75;;;;;;;;;;5025764;28;20056;-79
2022/12/07 10:53:44;;;;;;;58.40;52.10;;;;;;;;;;5014330;28;20045;-77
2022/12/07 10:56:09;;;;;;;73.80;65.72;;;;;;;;;;5035702;28;20454;-78
2022/12/07 10:58:53;;;;;;;102.25;87.75;;;;;;;;;;5021122;28;20021;-78
2022/12/07 11:01:22;;;;;;;63.38;56.15;;;;;;;;;;5023411;28;21095;-78
2022/12/07 11:04:13;;;;;;;111.22;99.57;;;;;;;;;;5024819;28;20448;-78
2022/12/07 11:06:54;;;;;;;103.68;92.35;;;;;;;;;;4944621;28;21262;-78
2022/12/07 11:09:47;;;;;;;99.53;82.47;;;;;;;;;;4944163;28;20034;-78
2022/12/07 11:12:34;;;;;;;142.23;107.45;;;;;;;;;;4940564;28;20158;-78
2022/12/07 11:15:04;;;;;;;90.70;74.40;;;;;;;;;;4941808;28;20074;-78
2022/12/07 11:17:32;;;;;;;75.88;64.57;;;;;;;;;;4942962;28;20049;-79
2022/12/07 11:20:20;;;;;;;84.68;68.38;;;;;;;;;;4926259;29;20041;-79
2022/12/07 11:22:45;;;;;;;107.32;89.35;;;;;;;;;;4925847;29;21145;-78
2022/12/07 11:25:17;;;;;;;74.63;65.70;;;;;;;;;;4926929;29;20731;-79
2022/12/07 11:27:54;;;;;;;66.20;55.03;;;;;;;;;;4926005;29;20443;-78
2022/12/07 11:30:21;;;;;;;46.10;40.05;;;;;;;;;;4924268;28;20074;-78
2022/12/07 11:33:07;;;;;;;53.95;48.00;;;;;;;;;;4920873;29;20462;-78
2022/12/07 11:35:51;;;;;;;57.15;49.08;;;;;;;;;;4927375;29;20042;-78
2022/12/07 11:38:37;;;;;;;59.92;53.65;;;;;;;;;;4923923;29;20027;-77
2022/12/07 11:41:13;;;;;;;33.92;29.38;;;;;;;;;;4924752;29;20446;-78
2022/12/07 11:44:02;;;;;;;27.02;24.23;;;;;;;;;;4966770;28;20054;-78
2022/12/07 11:46:35;;;;;;;27.63;23.50;;;;;;;;;;4988228;28;20042;-77
2022/12/07 11:49:01;;;;;;;31.42;27.63;;;;;;;;;;4992434;28;20772;-81
2022/12/07 11:51:28;;;;;;;31.08;27.70;;;;;;;;;;5014417;28;20045;-79
2022/12/07 11:54:01;;;;;;;47.85;41.75;;;;;;;;;;5026196;28;20028;-79
2022/12/07 11:56:27;;;;;;;42.28;37.22;;;;;;;;;;5019512;28;20336;-78
2022/12/07 11:59:10;;;;;;;28.20;25.23;;;;;;;;;;5036932;28;20029;-78
2022/12/07 12:01:38;;;;;;;31.05;27.83;;;;;;;;;;5034172;28;20033;-78
2022/12/07 12:04:06;;;;;;;32.80;29.52;;;;;;;;;;5033626;28;20029;-78
2022/12/07 12:06:34;;;;;;;30.95;27.67;;;;;;;;;;5035698;28;20037;-77
2022/12/07 12:09:11;;;;;;;30.90;27.48;;;;;;;;;;5035288;28;20044;-78
2022/12/07 12:11:39;;;;;;;28.55;25.38;;;;;;;;;;5036605;28;20072;-81
2022/12/07 12:14:05;;;;;;;33.00;29.63;;;;;;;;;;5033550;28;20116;-78
2022/12/07 12:16:49;;;;;;;33.25;29.17;;;;;;;;;;5035304;28;20100;-78
2022/12/07 12:19:43;;;;;;;32.40;27.25;;;;;;;;;;5035816;28;20076;-78
2022/12/07 12:22:08;;;;;;;25.67;22.92;;;;;;;;;;5018118;28;20041;-78
2022/12/07 12:24:36;;;;;;;42.03;37.58;;;;;;;;;;5039328;28;20040;-78
2022/12/07 12:27:04;;;;;;;39.13;34.97;;;;;;;;;;5039744;28;20024;-80
2022/12/07 12:29:34;;;;;;;39.33;32.78;;;;;;;;;;5039806;28;20067;-79
2022/12/07 12:32:08;;;;;;;34.83;29.73;;;;;;;;;;5039388;28;20078;-78
2022/12/07 12:34:52;;;;;;;39.47;33.13;;;;;;;;;;5039617;28;20031;-78
2022/12/07 12:37:32;;;;;;;40.83;34.78;;;;;;;;;;5040577;28;20536;-79
2022/12/07 12:40:16;;;;;;;39.65;34.30;;;;;;;;;;5040698;28;20029;-78
2022/12/07 12:42:47;;;;;;;35.05;31.20;;;;;;;;;;5040645;28;20033;-78
2022/12/07 12:45:42;;;;;;;89.25;51.47;;;;;;;;;;5040639;28;20033;-78
2022/12/07 12:48:26;;;;;;;122.38;95.28;;;;;;;;;;4977088;28;20393;-83
2022/12/07 12:51:11;;;;;;;105.88;82.47;;;;;;;;;;4979721;28;20042;-79
2022/12/07 12:53:36;;;;;;;54.25;45.85;;;;;;;;;;4979398;28;20361;-80
2022/12/07 12:56:19;;;;;;;53.85;47.90;;;;;;;;;;4979590;28;20571;-79
2022/12/07 12:58:45;;;;;;;57.40;47.42;;;;;;;;;;4977056;28;20038;-80
2022/12/07 13:01:29;;;;;;;51.45;45.47;;;;;;;;;;4979444;28;20859;-79
2022/12/07 13:03:55;;;;;;;42.10;36.47;;;;;;;;;;4975212;28;20256;-79
2022/12/07 13:06:26;;;;;;;61.03;50.05;;;;;;;;;;4977651;28;20038;-81
2022/12/07 13:08:52;;;;;;;68.07;57.40;;;;;;;;;;4973866;28;20049;-79
2022/12/07 13:11:20;;;;;;;52.63;43.75;;;;;;;;;;4977233;28;20487;-79
2022/12/07 13:13:45;;;;;;;48.13;38.78;;;;;;;;;;4977895;28;20042;-79
2022/12/07 13:16:11;;;;;;;54.95;45.97;;;;;;;;;;4975037;28;20054;-80
2022/12/07 13:18:37;;;;;;;73.78;62.88;;;;;;;;;;4976593;28;20097;-79
2022/12/07 13:21:08;;;;;;;64.13;52.58;;;;;;;;;;4976134;28;20029;-79
2022/12/07 13:23:33;;;;;;;68.18;55.03;;;;;;;;;;4984529;28;20125;-79
2022/12/07 13:26:08;;;;;;;89.55;71.25;;;;;;;;;;5036517;28;20137;-79
2022/12/07 13:28:40;;;;;;;78.75;62.83;;;;;;;;;;5040028;28;20099;-78
2022/12/07 13:31:17;;;;;;;66.70;52.33;;;;;;;;;;5034144;28;20053;-80
2022/12/07 13:33:45;;;;;;;63.83;52.65;;;;;;;;;;5038179;28;20441;-79
2022/12/07 13:36:18;;;;;;;53.63;47.47;;;;;;;;;;5039391;28;20041;-79
2022/12/07 13:38:57;;;;;;;53.20;44.78;;;;;;;;;;5040126;28;20367;-79
2022/12/07 13:41:25;;;;;;;50.65;42.10;;;;;;;;;;5037947;28;20035;-79
2022/12/07 13:43:50;;;;;;;55.22;45.17;;;;;;;;;;5038947;28;20028;-79
2022/12/07 13:46:17;;;;;;;55.40;44.78;;;;;;;;;;5037964;28;20337;-80
2022/12/07 13:48:49;;;;;;;53.35;44.30;;;;;;;;;;5036666;28;20025;-79
2022/12/07 13:51:19;;;;;;;47.00;40.53;;;;;;;;;;5037320;28;20037;-82
2022/12/07 13:53:52;;;;;;;50.55;42.72;;;;;;;;;;5036347;28;20037;-79
2022/12/07 13:56:17;;;;;;;45.58;38.53;;;;;;;;;;5038149;28;20033;-79
2022/12/07 13:58:43;;;;;;;44.38;38.00;;;;;;;;;;5038477;28;20029;-79
2022/12/07 14:01:08;;;;;;;51.40;40.15;;;;;;;;;;5038984;28;20033;-79
2022/12/07 14:03:35;;;;;;;55.88;43.85;;;;;;;;;;5033916;28;20078;-82
2022/12/07 14:06:18;;;;;;;54.15;45.58;;;;;;;;;;5035738;28;20040;-79
2022/12/07 14:08:43;;;;;;;54.88;47.00;;;;;;;;;;5035974;28;20036;-78
2022/12/07 14:11:13;;;;;;;61.72;50.75;;;;;;;;;;5037057;28;20049;-79
2022/12/07 14:13:52;;;;;;;60.83;52.08;;;;;;;;;;5038399;28;20064;-78
2022/12/07 14:16:22;;;;;;;64.20;53.65;;;;;;;;;;5019825;28;20041;-79
2022/12/07 14:18:47;;;;;;;63.03;49.67;;;;;;;;;;5036979;28;20187;-79
2022/12/07 14:21:13;;;;;;;65.53;56.67;;;;;;;;;;5035783;28;20123;-80
2022/12/07 14:23:39;;;;;;;60.72;49.83;;;;;;;;;;5037806;28;20448;-79